Time;durP1;ratioP1;P1;durP2;ratioP2;P2;SDS_P1;SDS_P2;PMS_P1;PMS_P2;Temp;Humidity;BMP_temperature;BMP_pressure;BME280_temperature;BME280_humidity;BME280_pressure;Samples;Min_cycle;Max_cycle;Signal;HPM_P1;HPM_P2
2023/12/14 00:01:34;;;;;;;0.30;0.20;;;9.40;99.90;;;;;;5088582;28;20424;-83
2023/12/14 00:03:59;;;;;;;0.30;0.20;;;9.40;99.90;;;;;;5088503;28;20264;-85
2023/12/14 00:06:25;;;;;;;1.67;1.53;;;9.40;99.90;;;;;;5089119;28;20523;-85
2023/12/14 00:08:50;;;;;;;0.30;0.20;;;9.40;99.90;;;;;;5088192;28;20265;-84
2023/12/14 00:11:16;;;;;;;0.83;0.83;;;9.50;99.90;;;;;;5089506;28;20179;-84
2023/12/14 00:13:42;;;;;;;0.33;0.30;;;9.50;99.90;;;;;;5090081;28;20204;-81
2023/12/14 00:16:08;;;;;;;0.30;0.20;;;9.50;99.90;;;;;;5089188;28;20173;-85
2023/12/14 00:18:34;;;;;;;0.30;0.20;;;9.50;99.90;;;;;;5089560;28;20196;-80
2023/12/14 00:21:01;;;;;;;0.30;0.20;;;9.50;99.90;;;;;;5088086;28;20249;-85
2023/12/14 00:23:27;;;;;;;0.30;0.20;;;9.50;99.90;;;;;;5090067;28;20199;-81
2023/12/14 00:25:52;;;;;;;0.30;0.20;;;9.50;99.90;;;;;;5087800;28;20656;-80
2023/12/14 00:28:18;;;;;;;0.30;0.20;;;9.50;99.90;;;;;;5089496;28;20295;-85
2023/12/14 00:30:44;;;;;;;0.30;0.20;;;9.50;99.90;;;;;;5089846;28;20161;-85
2023/12/14 00:33:09;;;;;;;0.57;0.53;;;9.50;99.90;;;;;;5089828;28;20196;-80
2023/12/14 00:35:35;;;;;;;0.30;0.20;;;9.50;99.90;;;;;;5088417;28;20687;-80
2023/12/14 00:38:01;;;;;;;0.30;0.20;;;9.50;99.90;;;;;;5088441;28;20196;-80
2023/12/14 00:40:27;;;;;;;0.30;0.20;;;9.50;99.90;;;;;;5089570;28;20525;-85
2023/12/14 00:42:52;;;;;;;0.30;0.20;;;9.50;99.90;;;;;;5089434;28;20835;-80
2023/12/14 00:45:18;;;;;;;0.30;0.20;;;9.50;99.90;;;;;;5089253;28;20184;-85
2023/12/14 00:47:44;;;;;;;0.30;0.20;;;9.50;99.90;;;;;;5089375;28;20212;-80
2023/12/14 00:50:09;;;;;;;0.30;0.20;;;9.50;99.90;;;;;;5087217;28;20172;-81
2023/12/14 00:52:36;;;;;;;0.30;0.20;;;9.50;99.90;;;;;;5087855;28;20181;-81
2023/12/14 00:55:01;;;;;;;0.30;0.20;;;9.50;99.90;;;;;;5087856;28;20421;-81
2023/12/14 00:57:27;;;;;;;0.30;0.20;;;9.60;99.90;;;;;;5088018;28;20519;-81
2023/12/14 00:59:53;;;;;;;0.50;0.50;;;9.60;99.90;;;;;;5087672;28;20817;-81
2023/12/14 01:02:18;;;;;;;0.30;0.20;;;9.60;99.90;;;;;;5089560;28;20176;-81
2023/12/14 01:04:44;;;;;;;0.30;0.20;;;9.60;99.90;;;;;;5087946;28;20701;-80
2023/12/14 01:07:10;;;;;;;0.30;0.20;;;9.60;99.90;;;;;;5089120;28;20260;-81
2023/12/14 01:09:35;;;;;;;0.30;0.30;;;9.60;99.90;;;;;;5088792;28;20657;-85
2023/12/14 01:12:01;;;;;;;0.40;0.37;;;9.60;99.90;;;;;;5089140;28;20506;-84
2023/12/14 01:14:27;;;;;;;0.30;0.20;;;9.60;99.90;;;;;;5087415;28;20433;-81
2023/12/14 01:16:52;;;;;;;0.40;0.40;;;9.60;99.90;;;;;;5088467;28;20220;-85
2023/12/14 01:19:18;;;;;;;0.30;0.20;;;9.60;99.90;;;;;;5091531;28;20263;-81
2023/12/14 01:21:44;;;;;;;0.30;0.20;;;9.60;99.90;;;;;;5091376;28;20172;-80
2023/12/14 01:24:10;;;;;;;0.30;0.20;;;9.60;99.90;;;;;;5093330;28;20220;-81
2023/12/14 01:26:36;;;;;;;0.30;0.20;;;9.60;99.90;;;;;;5092513;28;20192;-81
2023/12/14 01:29:02;;;;;;;2.20;2.10;;;9.60;99.90;;;;;;5091690;28;20251;-81
2023/12/14 01:31:27;;;;;;;0.30;0.20;;;9.60;99.90;;;;;;5092555;28;20264;-84
2023/12/14 01:33:53;;;;;;;0.30;0.20;;;9.60;99.90;;;;;;5092600;28;20192;-85
2023/12/14 01:36:24;;;;;;;0.30;0.20;;;9.60;99.90;;;;;;5091281;28;20181;-85
2023/12/14 01:38:50;;;;;;;1.00;1.00;;;9.60;99.90;;;;;;5091440;28;20227;-81
2023/12/14 01:41:15;;;;;;;0.30;0.20;;;9.60;99.90;;;;;;5091203;28;20185;-85
2023/12/14 01:43:41;;;;;;;0.30;0.20;;;9.60;99.90;;;;;;5091361;28;20189;-81
2023/12/14 01:46:07;;;;;;;0.30;0.20;;;9.60;99.90;;;;;;5092478;28;20173;-85
2023/12/14 01:48:32;;;;;;;0.30;0.20;;;9.60;99.90;;;;;;5091063;28;21005;-85
2023/12/14 01:50:58;;;;;;;0.30;0.20;;;9.60;99.90;;;;;;5090004;28;20185;-85
2023/12/14 01:53:24;;;;;;;0.47;0.47;;;9.60;99.90;;;;;;5092742;28;20201;-85
2023/12/14 01:55:49;;;;;;;0.30;0.20;;;9.60;99.90;;;;;;5091921;28;20204;-85
2023/12/14 01:58:15;;;;;;;0.30;0.20;;;9.60;99.90;;;;;;5092152;28;20188;-85
2023/12/14 02:00:58;;;;;;;0.30;0.20;;;9.60;99.90;;;;;;5092211;28;20161;-85
2023/12/14 02:03:23;;;;;;;0.40;0.40;;;9.50;99.90;;;;;;5091722;28;20282;-85
2023/12/14 02:05:49;;;;;;;0.30;0.20;;;9.50;99.90;;;;;;5091475;28;20251;-84
2023/12/14 02:08:15;;;;;;;0.73;0.73;;;9.60;99.90;;;;;;5091971;28;20216;-80
2023/12/14 02:10:40;;;;;;;0.30;0.20;;;9.60;99.90;;;;;;5091203;28;20482;-84
2023/12/14 02:13:07;;;;;;;0.87;0.87;;;9.60;99.90;;;;;;5091895;28;20193;-85
2023/12/14 02:15:33;;;;;;;0.30;0.30;;;9.60;99.90;;;;;;5091688;28;20390;-85
2023/12/14 02:17:58;;;;;;;0.30;0.30;;;9.50;99.90;;;;;;5091414;28;20601;-80
2023/12/14 02:20:24;;;;;;;0.87;0.87;;;9.60;99.90;;;;;;5090253;28;20196;-84
2023/12/14 02:22:56;;;;;;;0.30;0.20;;;9.50;99.90;;;;;;5091654;28;20217;-85
2023/12/14 02:25:23;;;;;;;0.30;0.20;;;9.50;99.90;;;;;;5091251;28;20184;-80
2023/12/14 02:27:51;;;;;;;0.30;0.20;;;9.50;99.90;;;;;;5089825;28;20251;-85
2023/12/14 02:30:18;;;;;;;1.75;1.65;;;9.50;99.90;;;;;;5091044;28;20195;-85
2023/12/14 02:32:44;;;;;;;0.73;0.73;;;9.60;99.90;;;;;;5089927;28;20672;-85
2023/12/14 02:35:10;;;;;;;0.52;0.52;;;9.60;99.90;;;;;;5089643;28;20188;-81
2023/12/14 02:37:37;;;;;;;0.30;0.20;;;9.50;99.90;;;;;;5091312;28;20169;-85
2023/12/14 02:40:04;;;;;;;0.68;0.68;;;9.60;99.90;;;;;;5091240;28;20453;-81
2023/12/14 02:42:30;;;;;;;0.30;0.20;;;9.60;99.90;;;;;;5091471;28;20173;-85
2023/12/14 02:44:56;;;;;;;0.30;0.20;;;9.60;99.90;;;;;;5090998;28;20582;-81
2023/12/14 02:47:22;;;;;;;0.30;0.20;;;9.60;99.90;;;;;;5091634;28;20757;-81
2023/12/14 02:49:48;;;;;;;0.30;0.20;;;9.60;99.90;;;;;;5089221;28;20200;-80
2023/12/14 02:52:13;;;;;;;0.30;0.20;;;9.60;99.90;;;;;;5091300;28;20498;-85
2023/12/14 02:54:40;;;;;;;1.50;0.93;;;9.60;99.90;;;;;;5089834;28;20204;-80
2023/12/14 02:57:06;;;;;;;0.30;0.20;;;9.60;99.90;;;;;;5089015;28;20176;-85
2023/12/14 02:59:32;;;;;;;0.30;0.20;;;9.60;99.90;;;;;;5091203;28;20205;-85
2023/12/14 03:01:57;;;;;;;0.30;0.20;;;9.60;99.90;;;;;;5089682;28;20771;-81
2023/12/14 03:04:23;;;;;;;0.30;0.20;;;9.60;99.90;;;;;;5091085;28;20452;-85
2023/12/14 03:06:49;;;;;;;0.30;0.20;;;9.70;99.90;;;;;;5090250;28;20174;-85
2023/12/14 03:09:15;;;;;;;0.30;0.20;;;9.70;99.90;;;;;;5089935;28;20251;-80
2023/12/14 03:11:40;;;;;;;0.30;0.20;;;9.70;99.90;;;;;;5090633;28;20251;-85
2023/12/14 03:14:06;;;;;;;0.30;0.20;;;9.60;99.90;;;;;;5090576;28;20905;-81
2023/12/14 03:16:32;;;;;;;0.30;0.20;;;9.60;99.90;;;;;;5090187;28;20705;-85
2023/12/14 03:18:57;;;;;;;1.80;1.70;;;9.60;99.90;;;;;;5089131;28;20224;-85
2023/12/14 03:21:23;;;;;;;0.30;0.20;;;9.60;99.90;;;;;;5090819;28;20180;-84
2023/12/14 03:23:50;;;;;;;1.80;1.70;;;9.70;99.90;;;;;;5090727;28;20192;-86
2023/12/14 03:26:16;;;;;;;0.30;0.20;;;9.70;99.90;;;;;;5089224;28;20233;-85
2023/12/14 03:28:41;;;;;;;0.30;0.20;;;9.60;99.90;;;;;;5089046;28;20228;-81
2023/12/14 03:31:10;;;;;;;0.40;0.30;;;9.60;99.90;;;;;;5090520;28;20161;-80
2023/12/14 03:33:36;;;;;;;0.30;0.20;;;9.60;99.90;;;;;;5089055;28;20617;-85
2023/12/14 03:36:02;;;;;;;1.60;1.50;;;9.60;99.90;;;;;;5089977;28;20200;-84
2023/12/14 03:38:28;;;;;;;0.30;0.20;;;9.60;99.90;;;;;;5090485;28;20196;-81
2023/12/14 03:40:54;;;;;;;0.30;0.20;;;9.70;99.90;;;;;;5087901;28;20192;-85
2023/12/14 03:43:19;;;;;;;0.30;0.20;;;9.70;99.90;;;;;;5090306;28;20196;-80
2023/12/14 03:45:45;;;;;;;0.30;0.20;;;9.60;99.90;;;;;;5088644;28;20185;-80
2023/12/14 03:48:11;;;;;;;0.30;0.20;;;9.70;99.90;;;;;;5090490;28;20220;-85
2023/12/14 03:50:37;;;;;;;0.50;0.50;;;9.70;99.90;;;;;;5089819;28;20499;-83
2023/12/14 03:53:02;;;;;;;0.30;0.20;;;9.70;99.90;;;;;;5089984;28;20196;-85
2023/12/14 03:55:28;;;;;;;0.30;0.20;;;9.60;99.90;;;;;;5088826;28;20172;-85
2023/12/14 03:57:53;;;;;;;0.30;0.20;;;9.70;99.90;;;;;;5089618;28;20531;-81
2023/12/14 04:00:20;;;;;;;0.30;0.20;;;9.60;99.90;;;;;;5089845;28;20173;-85
2023/12/14 04:02:45;;;;;;;0.30;0.20;;;9.70;99.90;;;;;;5090100;28;20609;-85
2023/12/14 04:05:11;;;;;;;0.30;0.20;;;9.70;99.90;;;;;;5089829;28;20247;-80
2023/12/14 04:07:40;;;;;;;0.60;0.57;;;9.70;99.90;;;;;;5088373;28;20254;-85
2023/12/14 04:10:08;;;;;;;0.30;0.20;;;9.70;99.90;;;;;;5087775;28;20168;-81
2023/12/14 04:12:35;;;;;;;0.63;0.63;;;9.70;99.90;;;;;;5088307;28;20176;-81
2023/12/14 04:15:02;;;;;;;0.30;0.20;;;9.70;99.90;;;;;;5089244;28;20230;-85
2023/12/14 04:17:27;;;;;;;0.30;0.20;;;9.70;99.90;;;;;;5090031;28;20248;-85
2023/12/14 04:19:53;;;;;;;0.53;0.50;;;9.80;99.90;;;;;;5089438;28;20232;-81
2023/12/14 04:22:19;;;;;;;0.30;0.20;;;9.80;99.90;;;;;;5089660;28;20187;-85
2023/12/14 04:24:44;;;;;;;0.30;0.20;;;9.80;99.90;;;;;;5088056;28;20512;-85
2023/12/14 04:27:10;;;;;;;0.30;0.20;;;9.80;99.90;;;;;;5089377;28;20176;-84
2023/12/14 04:29:35;;;;;;;1.73;1.63;;;9.80;99.90;;;;;;5089454;28;20251;-83
2023/12/14 04:32:02;;;;;;;0.30;0.20;;;9.80;99.90;;;;;;5088133;28;20203;-81
2023/12/14 04:34:27;;;;;;;0.40;0.40;;;9.80;99.90;;;;;;5089230;28;20193;-85
2023/12/14 04:36:57;;;;;;;0.30;0.20;;;9.70;99.90;;;;;;5087941;28;20260;-85
2023/12/14 04:39:26;;;;;;;0.30;0.30;;;9.70;99.90;;;;;;5088117;28;20250;-85
2023/12/14 04:41:52;;;;;;;0.85;0.85;;;9.70;99.90;;;;;;5087953;28;20169;-81
2023/12/14 04:44:19;;;;;;;0.30;0.20;;;9.80;99.90;;;;;;5088115;28;20200;-81
2023/12/14 04:46:45;;;;;;;0.30;0.20;;;9.70;99.90;;;;;;5088964;28;20613;-80
2023/12/14 04:49:10;;;;;;;0.30;0.20;;;9.80;99.90;;;;;;5088016;28;20259;-83
2023/12/14 04:51:37;;;;;;;0.30;0.30;;;9.80;99.90;;;;;;5086612;28;20417;-81
2023/12/14 04:54:03;;;;;;;0.30;0.20;;;9.80;99.90;;;;;;5093633;28;20681;-85
2023/12/14 04:56:29;;;;;;;7.70;7.10;;;9.80;99.90;;;;;;5092457;28;20173;-84
2023/12/14 04:58:55;;;;;;;1.03;1.03;;;9.80;99.90;;;;;;5093135;28;20202;-80
2023/12/14 05:01:20;;;;;;;0.30;0.20;;;9.80;99.90;;;;;;5092053;28;20549;-81
2023/12/14 05:03:46;;;;;;;0.30;0.20;;;9.80;99.90;;;;;;5092104;28;21022;-85
2023/12/14 05:06:11;;;;;;;0.30;0.20;;;9.80;99.90;;;;;;5092527;28;20180;-84
2023/12/14 05:08:37;;;;;;;0.30;0.20;;;9.80;99.90;;;;;;5091337;28;20458;-81
2023/12/14 05:11:04;;;;;;;0.40;0.37;;;9.80;99.90;;;;;;5091926;28;20457;-85
2023/12/14 05:13:30;;;;;;;0.30;0.20;;;9.90;99.90;;;;;;5093119;28;20585;-80
2023/12/14 05:15:57;;;;;;;0.30;0.20;;;9.80;99.90;;;;;;5092540;28;20534;-80
2023/12/14 05:18:23;;;;;;;0.30;0.20;;;9.90;99.90;;;;;;5091406;28;20615;-85
2023/12/14 05:20:50;;;;;;;0.47;0.47;;;9.90;99.90;;;;;;5092215;28;20200;-80
2023/12/14 05:23:16;;;;;;;0.30;0.20;;;9.90;99.90;;;;;;5092945;28;20643;-80
2023/12/14 05:25:41;;;;;;;0.30;0.20;;;9.90;99.90;;;;;;5091534;28;20264;-84
2023/12/14 05:28:07;;;;;;;0.30;0.20;;;9.90;99.90;;;;;;5091939;28;20216;-85
2023/12/14 05:30:33;;;;;;;0.30;0.20;;;9.90;99.90;;;;;;5091264;28;20177;-85
2023/12/14 05:32:58;;;;;;;0.30;0.20;;;9.90;99.90;;;;;;5092501;28;20726;-85
2023/12/14 05:35:24;;;;;;;0.30;0.20;;;9.90;99.90;;;;;;5092572;28;20229;-85
2023/12/14 05:37:50;;;;;;;0.30;0.20;;;9.90;99.90;;;;;;5092711;28;20552;-80
2023/12/14 05:40:15;;;;;;;0.63;0.63;;;9.90;99.90;;;;;;5090932;28;20637;-85
2023/12/14 05:42:41;;;;;;;0.30;0.20;;;9.80;99.90;;;;;;5092277;28;20428;-85
2023/12/14 05:45:08;;;;;;;0.30;0.20;;;9.80;99.90;;;;;;5092108;28;20227;-81
2023/12/14 05:47:34;;;;;;;0.30;0.20;;;9.80;99.90;;;;;;5091210;28;20263;-85
2023/12/14 05:50:00;;;;;;;0.30;0.20;;;9.80;99.90;;;;;;5091965;28;20192;-80
2023/12/14 05:52:26;;;;;;;0.30;0.20;;;9.80;99.90;;;;;;5091810;28;20451;-80
2023/12/14 05:54:52;;;;;;;0.50;0.50;;;9.80;99.90;;;;;;5090421;28;20389;-81
2023/12/14 05:57:17;;;;;;;28.97;12.30;;;9.70;99.90;;;;;;5090578;28;20512;-80
2023/12/14 05:59:43;;;;;;;0.30;0.20;;;9.70;99.90;;;;;;5090722;28;20219;-85
2023/12/14 06:02:09;;;;;;;0.30;0.20;;;9.70;99.90;;;;;;5090384;28;20539;-85
2023/12/14 06:04:34;;;;;;;0.30;0.20;;;9.60;99.90;;;;;;5090200;28;20201;-80
2023/12/14 06:07:00;;;;;;;0.30;0.20;;;9.60;99.90;;;;;;5088023;28;20256;-80
2023/12/14 06:09:35;;;;;;;0.30;0.20;;;9.60;99.90;;;;;;5091649;28;20240;-85
2023/12/14 06:12:04;;;;;;;0.30;0.30;;;9.60;99.90;;;;;;5090413;28;20163;-85
2023/12/14 06:14:31;;;;;;;0.50;0.50;;;9.60;99.90;;;;;;5105898;28;20497;-80
2023/12/14 06:16:57;;;;;;;0.30;0.30;;;9.60;99.90;;;;;;5088535;28;20262;-80
2023/12/14 06:19:23;;;;;;;0.38;0.38;;;9.60;99.90;;;;;;5090515;28;20230;-85
2023/12/14 06:21:49;;;;;;;0.30;0.20;;;9.60;99.90;;;;;;5090802;28;20208;-83
2023/12/14 06:24:15;;;;;;;0.30;0.20;;;9.60;99.90;;;;;;5090206;28;20196;-81
2023/12/14 06:26:42;;;;;;;0.30;0.20;;;9.60;99.90;;;;;;5089960;28;20176;-84
2023/12/14 06:29:09;;;;;;;0.30;0.20;;;9.60;99.90;;;;;;5087804;28;20226;-85
2023/12/14 06:31:34;;;;;;;0.30;0.20;;;9.60;99.90;;;;;;5081200;28;20645;-80
2023/12/14 06:34:03;;;;;;;0.30;0.20;;;9.60;99.90;;;;;;5082527;28;20204;-81
2023/12/14 06:36:29;;;;;;;3.95;3.55;;;9.60;99.90;;;;;;5086040;28;20217;-80
2023/12/14 06:38:55;;;;;;;0.40;0.30;;;9.60;99.90;;;;;;5084377;28;20579;-85
2023/12/14 06:41:25;;;;;;;0.30;0.30;;;9.60;99.90;;;;;;5088684;28;20188;-85
2023/12/14 06:43:51;;;;;;;0.30;0.20;;;9.60;99.90;;;;;;5087415;28;20449;-82
2023/12/14 06:46:16;;;;;;;0.40;0.30;;;9.50;99.90;;;;;;5081507;28;20202;-86
2023/12/14 06:48:42;;;;;;;0.30;0.20;;;9.50;99.90;;;;;;5081098;28;20526;-82
2023/12/14 06:51:08;;;;;;;0.30;0.20;;;9.60;99.90;;;;;;5079726;28;20859;-85
2023/12/14 06:53:37;;;;;;;1.70;1.70;;;9.60;99.90;;;;;;5084646;28;20455;-80
2023/12/14 06:56:03;;;;;;;0.30;0.20;;;9.60;99.90;;;;;;5078553;28;20169;-80
2023/12/14 06:58:28;;;;;;;0.30;0.20;;;9.60;99.90;;;;;;5081281;28;20196;-86
2023/12/14 07:00:54;;;;;;;0.30;0.20;;;9.60;99.90;;;;;;5085668;28;20417;-81
2023/12/14 07:03:20;;;;;;;0.30;0.30;;;9.60;99.90;;;;;;5086898;28;20603;-81
2023/12/14 07:05:45;;;;;;;0.30;0.20;;;9.60;99.90;;;;;;5087958;28;20777;-82
2023/12/14 07:08:12;;;;;;;1.17;1.17;;;9.70;99.90;;;;;;5086641;28;20333;-86
2023/12/14 07:10:38;;;;;;;0.50;0.50;;;9.60;99.90;;;;;;5085958;28;20786;-86
2023/12/14 07:13:04;;;;;;;0.30;0.20;;;9.70;99.90;;;;;;5084327;28;20212;-86
2023/12/14 07:15:29;;;;;;;2.72;2.53;;;9.70;99.90;;;;;;5086521;28;20771;-81
2023/12/14 07:17:55;;;;;;;3.47;3.30;;;9.70;99.90;;;;;;5087822;28;20254;-85
2023/12/14 07:20:21;;;;;;;0.30;0.30;;;9.70;99.90;;;;;;5081854;28;20181;-86
2023/12/14 07:22:47;;;;;;;0.30;0.20;;;9.70;99.90;;;;;;5087503;28;20549;-85
2023/12/14 07:25:13;;;;;;;0.60;0.60;;;9.70;99.90;;;;;;5087136;28;20413;-85
2023/12/14 07:27:38;;;;;;;0.97;0.97;;;9.70;99.90;;;;;;5088736;28;20204;-81
2023/12/14 07:30:05;;;;;;;0.90;0.90;;;9.70;99.90;;;;;;5085903;28;20670;-86
2023/12/14 07:32:30;;;;;;;0.30;0.20;;;9.70;99.90;;;;;;5076602;28;20179;-81
2023/12/14 07:34:56;;;;;;;0.30;0.30;;;9.70;99.90;;;;;;5074809;28;20173;-83
2023/12/14 07:37:22;;;;;;;0.30;0.20;;;9.70;99.90;;;;;;5073060;28;20585;-81
2023/12/14 07:39:47;;;;;;;0.30;0.20;;;9.80;99.90;;;;;;5070507;28;20211;-82
2023/12/14 07:42:19;;;;;;;0.30;0.20;;;9.90;99.90;;;;;;5095749;27;20182;-87
2023/12/14 07:44:45;;;;;;;0.30;0.20;;;9.90;99.90;;;;;;5086321;28;20196;-81
2023/12/14 07:47:10;;;;;;;0.30;0.20;;;9.90;99.90;;;;;;5083290;28;20279;-80
2023/12/14 07:49:36;;;;;;;0.30;0.20;;;9.80;99.90;;;;;;5084008;28;20468;-86
2023/12/14 07:52:02;;;;;;;0.40;0.20;;;9.80;99.90;;;;;;5089467;28;20179;-81
2023/12/14 07:54:28;;;;;;;2.77;2.57;;;9.80;99.90;;;;;;5086665;28;20623;-81
2023/12/14 07:56:53;;;;;;;0.30;0.30;;;9.80;99.90;;;;;;5089801;28;20187;-86
2023/12/14 07:59:19;;;;;;;0.30;0.20;;;9.70;99.90;;;;;;5088818;28;20597;-81
2023/12/14 08:01:45;;;;;;;0.30;0.20;;;9.70;99.90;;;;;;5091769;28;20183;-86
2023/12/14 08:04:11;;;;;;;0.33;0.30;;;9.70;99.90;;;;;;5096071;28;20429;-86
2023/12/14 08:06:39;;;;;;;0.30;0.20;;;9.70;99.90;;;;;;5087455;28;20644;-85
2023/12/14 08:09:05;;;;;;;0.30;0.20;;;9.70;99.90;;;;;;5091600;28;20228;-86
2023/12/14 08:11:32;;;;;;;0.30;0.20;;;9.60;99.90;;;;;;5088094;28;20424;-81
2023/12/14 08:13:58;;;;;;;0.30;0.20;;;9.70;99.90;;;;;;5077888;28;20204;-81
2023/12/14 08:16:23;;;;;;;6.03;2.30;;;9.70;99.90;;;;;;5087490;28;20668;-80
2023/12/14 08:18:49;;;;;;;0.30;0.20;;;9.70;99.90;;;;;;5079734;28;20529;-89
2023/12/14 08:21:15;;;;;;;0.30;0.20;;;9.70;99.90;;;;;;5092615;28;20382;-88
2023/12/14 08:23:42;;;;;;;0.30;0.22;;;9.70;99.90;;;;;;5089065;28;20204;-87
2023/12/14 08:26:10;;;;;;;0.30;0.30;;;9.70;99.90;;;;;;5096015;28;20179;-81
2023/12/14 08:28:35;;;;;;;1.13;1.02;;;9.70;99.90;;;;;;5084264;28;20221;-86
2023/12/14 08:31:04;;;;;;;0.33;0.20;;;9.80;99.90;;;;;;5087090;28;20168;-83
2023/12/14 08:33:30;;;;;;;0.38;0.38;;;9.80;99.90;;;;;;5097343;28;20283;-81
2023/12/14 08:35:56;;;;;;;0.30;0.20;;;9.80;99.90;;;;;;5086345;28;20259;-87
2023/12/14 08:38:22;;;;;;;0.30;0.20;;;9.90;99.90;;;;;;5091746;28;20252;-87
2023/12/14 08:40:48;;;;;;;0.50;0.50;;;9.90;99.90;;;;;;5086992;28;20460;-82
2023/12/14 08:43:14;;;;;;;0.50;0.50;;;9.90;99.90;;;;;;5088353;28;20663;-81
2023/12/14 08:45:40;;;;;;;0.30;0.20;;;10.00;99.90;;;;;;5093620;28;20446;-81
2023/12/14 08:48:06;;;;;;;0.30;0.20;;;10.00;99.90;;;;;;5083386;28;20227;-80
2023/12/14 08:50:31;;;;;;;0.30;0.30;;;10.00;99.90;;;;;;5094795;28;20198;-81
2023/12/14 08:52:58;;;;;;;0.30;0.20;;;10.00;99.90;;;;;;5088186;28;20472;-80
2023/12/14 08:55:24;;;;;;;0.70;0.70;;;10.00;99.90;;;;;;5079213;28;20177;-81
2023/12/14 08:57:50;;;;;;;0.30;0.20;;;10.00;99.90;;;;;;5083150;28;20204;-86
2023/12/14 09:00:17;;;;;;;0.30;0.20;;;10.10;99.90;;;;;;5090229;28;20183;-86
2023/12/14 09:02:45;;;;;;;0.82;0.82;;;10.30;99.90;;;;;;5089239;28;20172;-82
2023/12/14 09:05:12;;;;;;;0.30;0.20;;;10.80;99.90;;;;;;5076574;28;20649;-85
2023/12/14 09:07:38;;;;;;;1.33;1.33;;;11.40;99.90;;;;;;5065426;28;20188;-87
2023/12/14 09:10:04;;;;;;;0.30;0.20;;;11.70;99.90;;;;;;5080165;28;20645;-82
2023/12/14 09:12:30;;;;;;;0.60;0.60;;;11.80;99.90;;;;;;5078343;28;20185;-85
2023/12/14 09:14:55;;;;;;;6.73;2.00;;;11.80;99.90;;;;;;5088004;28;20210;-81
2023/12/14 09:17:21;;;;;;;0.30;0.20;;;11.60;99.90;;;;;;5076588;28;20693;-81
2023/12/14 09:19:47;;;;;;;0.73;0.73;;;11.50;99.90;;;;;;5082861;28;20275;-86
2023/12/14 09:22:13;;;;;;;0.77;0.77;;;11.30;99.90;;;;;;5062881;28;20184;-82
2023/12/14 09:24:38;;;;;;;0.40;0.40;;;11.20;99.90;;;;;;5071457;28;20590;-82
2023/12/14 09:27:04;;;;;;;3.33;3.10;;;11.10;99.90;;;;;;5084068;28;20190;-80
2023/12/14 09:29:30;;;;;;;0.30;0.20;;;11.00;99.90;;;;;;5069045;28;20263;-83
2023/12/14 09:31:55;;;;;;;0.30;0.20;;;10.90;99.90;;;;;;5081877;28;20223;-83
2023/12/14 09:34:21;;;;;;;0.30;0.20;;;10.80;99.90;;;;;;5088865;28;20205;-85
2023/12/14 09:36:46;;;;;;;0.80;0.77;;;10.70;99.90;;;;;;5078197;28;20261;-88
2023/12/14 09:39:12;;;;;;;2.87;2.57;;;10.70;99.90;;;;;;5075650;28;20294;-86
2023/12/14 09:41:39;;;;;;;0.40;0.40;;;10.60;99.90;;;;;;5067656;28;20288;-81
2023/12/14 09:44:06;;;;;;;4.53;3.65;;;10.60;99.90;;;;;;5070204;28;20205;-81
2023/12/14 09:46:36;;;;;;;11.80;11.15;;;10.50;99.90;;;;;;5090526;28;20175;-79
2023/12/14 09:49:04;;;;;;;0.40;0.20;;;10.60;99.90;;;;;;5091949;28;20719;-81
2023/12/14 09:51:30;;;;;;;0.30;0.20;;;10.60;99.90;;;;;;5071759;28;21119;-87
2023/12/14 09:53:58;;;;;;;1.20;1.20;;;10.70;99.90;;;;;;5085546;28;20207;-87
2023/12/14 09:56:25;;;;;;;0.30;0.20;;;10.80;99.90;;;;;;5067881;28;20215;-84
2023/12/14 09:58:51;;;;;;;0.32;0.30;;;10.80;99.90;;;;;;5070435;28;20575;-84
2023/12/14 10:01:27;;;;;;;0.30;0.20;;;10.90;99.90;;;;;;5072223;28;20179;-80
2023/12/14 10:04:13;;;;;;;0.30;0.20;;;11.00;99.90;;;;;;5094101;28;20192;-79
2023/12/14 10:06:41;;;;;;;0.30;0.20;;;11.20;99.90;;;;;;5084899;28;20214;-80
2023/12/14 10:09:13;;;;;;;0.30;0.20;;;11.20;99.90;;;;;;5084338;28;20253;-83
2023/12/14 10:11:39;;;;;;;3.63;3.53;;;11.20;99.90;;;;;;5091322;28;20510;-84
2023/12/14 10:14:25;;;;;;;0.40;0.30;;;11.30;99.90;;;;;;5095787;28;20199;-80
2023/12/14 10:16:51;;;;;;;0.30;0.20;;;11.30;99.90;;;;;;5084743;28;20235;-79
2023/12/14 10:19:21;;;;;;;0.30;0.20;;;11.30;99.90;;;;;;5062520;28;20273;-80
2023/12/14 10:21:48;;;;;;;3.90;3.70;;;11.30;99.90;;;;;;5062472;28;20276;-85
2023/12/14 10:24:14;;;;;;;0.30;0.20;;;11.30;99.90;;;;;;5067323;28;20282;-84
2023/12/14 10:26:40;;;;;;;0.30;0.30;;;11.30;99.90;;;;;;5062676;28;20181;-85
2023/12/14 10:29:06;;;;;;;0.30;0.30;;;11.20;99.90;;;;;;5065345;28;20281;-81
2023/12/14 10:31:37;;;;;;;0.30;0.20;;;11.20;99.90;;;;;;5084409;28;20188;-84
2023/12/14 10:34:05;;;;;;;0.88;0.32;;;11.20;99.90;;;;;;5088431;28;20204;-81
2023/12/14 10:36:32;;;;;;;0.30;0.20;;;11.30;99.90;;;;;;5084832;28;20187;-80
2023/12/14 10:38:59;;;;;;;0.30;0.20;;;11.30;99.90;;;;;;5095137;28;20641;-81
2023/12/14 10:41:25;;;;;;;0.30;0.20;;;11.40;99.90;;;;;;5094351;28;20665;-82
2023/12/14 10:43:55;;;;;;;0.30;0.20;;;11.50;99.90;;;;;;5098384;28;20216;-82
2023/12/14 10:46:21;;;;;;;0.30;0.30;;;11.60;99.90;;;;;;5072356;28;20451;-81
2023/12/14 10:48:49;;;;;;;0.30;0.20;;;11.60;99.90;;;;;;5092175;28;20487;-80
2023/12/14 10:51:17;;;;;;;0.40;0.30;;;11.60;99.90;;;;;;5088189;28;20554;-85
2023/12/14 10:53:47;;;;;;;0.30;0.20;;;11.60;99.90;;;;;;5089855;28;20200;-81
2023/12/14 10:56:13;;;;;;;0.30;0.20;;;11.60;99.90;;;;;;5091345;28;20366;-84
2023/12/14 10:59:00;;;;;;;0.52;0.52;;;11.60;99.90;;;;;;5094876;28;20198;-85
2023/12/14 11:01:26;;;;;;;0.30;0.20;;;11.50;99.90;;;;;;5088185;28;20372;-81
2023/12/14 11:03:58;;;;;;;0.30;0.20;;;11.50;99.90;;;;;;5087580;28;20207;-85
2023/12/14 11:06:32;;;;;;;0.30;0.20;;;11.50;99.90;;;;;;5085269;28;20256;-81
2023/12/14 11:09:05;;;;;;;0.30;0.20;;;11.50;99.90;;;;;;5092604;28;21188;-85
2023/12/14 11:11:41;;;;;;;0.30;0.20;;;11.60;99.90;;;;;;5091121;28;20460;-81
2023/12/14 11:14:10;;;;;;;0.30;0.30;;;11.60;99.90;;;;;;5088077;28;20426;-81
2023/12/14 11:16:37;;;;;;;0.30;0.20;;;11.60;99.90;;;;;;5097302;27;20219;-85
2023/12/14 11:19:21;;;;;;;0.30;0.20;;;11.70;99.90;;;;;;5099491;27;20577;-81
2023/12/14 11:21:55;;;;;;;0.50;0.50;;;11.80;99.90;;;;;;5083799;28;20402;-85
2023/12/14 11:24:21;;;;;;;0.30;0.20;;;11.80;99.90;;;;;;5095526;28;20414;-82
2023/12/14 11:26:49;;;;;;;0.30;0.20;;;11.80;99.90;;;;;;5094114;28;20179;-85
2023/12/14 11:29:15;;;;;;;0.30;0.20;;;11.90;99.90;;;;;;5081763;28;20727;-81
2023/12/14 11:31:41;;;;;;;0.60;0.60;;;12.00;99.90;;;;;;5085634;28;20413;-85
2023/12/14 11:34:07;;;;;;;2.23;2.13;;;12.00;99.90;;;;;;5086007;28;20446;-86
2023/12/14 11:36:33;;;;;;;4.20;2.20;;;12.00;99.90;;;;;;5081811;28;20493;-81
2023/12/14 11:38:59;;;;;;;0.97;0.97;;;12.00;99.90;;;;;;5085532;28;20452;-81
2023/12/14 11:41:29;;;;;;;0.30;0.20;;;12.00;99.90;;;;;;5089083;28;21061;-84
2023/12/14 11:43:55;;;;;;;0.30;0.20;;;12.00;99.90;;;;;;5090251;28;20681;-81
2023/12/14 11:46:21;;;;;;;0.30;0.20;;;11.90;99.90;;;;;;5087109;28;20450;-81
2023/12/14 11:48:50;;;;;;;0.30;0.20;;;11.90;99.90;;;;;;5089695;28;20701;-85
2023/12/14 11:51:16;;;;;;;0.30;0.30;;;11.90;99.90;;;;;;5081114;28;20188;-80
2023/12/14 11:53:50;;;;;;;0.30;0.20;;;11.90;99.90;;;;;;5080877;28;20426;-81
2023/12/14 11:56:19;;;;;;;0.30;0.20;;;11.90;99.90;;;;;;5075586;28;20403;-86
2023/12/14 11:58:46;;;;;;;0.30;0.20;;;11.90;99.90;;;;;;5070740;28;20451;-85
2023/12/14 12:01:24;;;;;;;0.30;0.20;;;11.80;99.90;;;;;;5068823;28;21983;-80
2023/12/14 12:03:50;;;;;;;0.30;0.20;;;11.80;99.90;;;;;;5082356;28;20423;-81
2023/12/14 12:06:30;;;;;;;0.73;0.70;;;11.70;99.90;;;;;;5087758;28;20287;-81
2023/12/14 12:08:56;;;;;;;0.30;0.20;;;11.70;99.90;;;;;;5085095;28;20211;-82
2023/12/14 12:11:23;;;;;;;0.30;0.20;;;11.60;99.90;;;;;;5080071;28;20168;-82
2023/12/14 12:13:57;;;;;;;0.30;0.20;;;11.60;99.90;;;;;;5065074;28;20198;-82
2023/12/14 12:16:22;;;;;;;0.30;0.20;;;11.60;99.90;;;;;;5061008;28;20450;-82
2023/12/14 12:18:50;;;;;;;0.30;0.20;;;11.60;99.90;;;;;;5063586;28;20235;-82
2023/12/14 12:21:16;;;;;;;0.30;0.20;;;11.60;99.90;;;;;;5067865;28;20184;-81
2023/12/14 12:23:41;;;;;;;0.30;0.20;;;11.60;99.90;;;;;;5067022;28;20467;-85
2023/12/14 12:26:08;;;;;;;0.30;0.30;;;11.60;99.90;;;;;;5081333;28;20339;-83
2023/12/14 12:28:33;;;;;;;2.97;2.87;;;11.60;99.90;;;;;;5084378;28;20610;-86
2023/12/14 12:30:59;;;;;;;1.07;1.07;;;11.60;99.90;;;;;;5087631;28;20428;-82
2023/12/14 12:33:25;;;;;;;0.30;0.20;;;11.50;99.90;;;;;;5085525;28;20209;-86
2023/12/14 12:35:52;;;;;;;0.30;0.20;;;11.50;99.90;;;;;;5073145;28;20461;-86
2023/12/14 12:38:18;;;;;;;0.30;0.30;;;11.50;99.90;;;;;;5075739;28;20911;-86
2023/12/14 12:40:44;;;;;;;0.30;0.20;;;11.40;99.90;;;;;;5087006;28;20429;-86
2023/12/14 12:43:11;;;;;;;0.30;0.20;;;11.50;99.90;;;;;;5087694;28;20416;-86
2023/12/14 12:45:37;;;;;;;0.30;0.20;;;11.40;99.90;;;;;;5086830;28;20416;-86
2023/12/14 12:48:05;;;;;;;0.40;0.37;;;11.40;99.90;;;;;;5070709;28;20216;-87
2023/12/14 12:50:31;;;;;;;0.30;0.20;;;11.40;99.90;;;;;;5058001;28;20955;-81